Time;durP1;ratioP1;P1;durP2;ratioP2;P2;SDS_P1;SDS_P2;PMS_P1;PMS_P2;Temp;Humidity;BMP_temperature;BMP_pressure;BME280_temperature;BME280_humidity;BME280_pressure;Samples;Min_cycle;Max_cycle;Signal;HPM_P1;HPM_P2
2021/05/15 00:01:09;;;;;;;8.90;5.20;;;17.10;73.20;;;;;;5022220;28;20101;-64
2021/05/15 00:03:35;;;;;;;6.90;4.50;;;17.00;73.20;;;;;;5021629;28;20037;-64
2021/05/15 00:06:02;;;;;;;5.80;4.10;;;17.00;73.10;;;;;;5023312;28;20029;-65
2021/05/15 00:08:28;;;;;;;6.13;4.25;;;17.00;73.30;;;;;;5022725;28;20026;-64
2021/05/15 00:10:54;;;;;;;7.00;4.32;;;17.00;73.30;;;;;;5023671;28;20056;-65
2021/05/15 00:13:20;;;;;;;7.50;4.28;;;17.00;73.50;;;;;;5021789;28;20022;-65
2021/05/15 00:15:46;;;;;;;6.22;4.05;;;16.90;73.50;;;;;;5022027;28;20029;-65
2021/05/15 00:18:12;;;;;;;6.13;4.28;;;16.90;73.50;;;;;;5024558;28;20096;-64
2021/05/15 00:20:37;;;;;;;7.28;4.72;;;16.90;73.60;;;;;;5023812;28;20461;-65
2021/05/15 00:23:03;;;;;;;6.00;4.13;;;16.80;73.60;;;;;;5019098;28;20025;-65
2021/05/15 00:25:29;;;;;;;6.70;4.45;;;16.80;73.80;;;;;;5023734;28;20052;-64
2021/05/15 00:27:54;;;;;;;7.00;4.60;;;16.80;73.90;;;;;;5023824;28;20045;-65
2021/05/15 00:30:20;;;;;;;5.82;4.30;;;16.70;74.00;;;;;;5022768;28;20025;-65
2021/05/15 00:32:46;;;;;;;7.53;4.60;;;16.70;74.10;;;;;;5021674;28;20116;-65
2021/05/15 00:35:12;;;;;;;6.38;4.57;;;16.70;74.20;;;;;;5023305;28;20029;-65
2021/05/15 00:37:38;;;;;;;5.80;4.75;;;16.60;74.40;;;;;;5022312;28;20029;-65
2021/05/15 00:40:09;;;;;;;6.93;4.85;;;16.60;74.50;;;;;;5022140;28;20026;-64
2021/05/15 00:42:36;;;;;;;6.13;4.57;;;16.50;74.60;;;;;;5020489;28;20022;-64
2021/05/15 00:45:04;;;;;;;6.70;5.15;;;16.50;74.80;;;;;;5023232;28;20041;-64
2021/05/15 00:47:30;;;;;;;7.80;4.85;;;16.40;75.10;;;;;;5021775;28;20021;-65
2021/05/15 00:49:55;;;;;;;7.43;4.97;;;16.40;75.20;;;;;;5023170;28;20098;-65
2021/05/15 00:52:21;;;;;;;7.28;5.25;;;16.40;75.40;;;;;;5004702;28;20018;-64
2021/05/15 00:54:51;;;;;;;6.03;5.20;;;16.30;75.50;;;;;;5019543;28;20042;-65
2021/05/15 00:57:17;;;;;;;6.95;5.28;;;16.30;75.70;;;;;;5021008;28;20057;-65
2021/05/15 00:59:43;;;;;;;7.00;5.53;;;16.30;75.70;;;;;;5022849;28;20030;-65
2021/05/15 01:02:10;;;;;;;8.38;4.95;;;16.30;75.90;;;;;;5022212;28;20032;-65
2021/05/15 01:04:36;;;;;;;10.40;5.50;;;16.20;76.00;;;;;;5026780;28;20084;-64
2021/05/15 01:07:06;;;;;;;6.70;5.07;;;16.20;76.20;;;;;;5025106;28;20363;-65
2021/05/15 01:09:31;;;;;;;5.93;4.70;;;16.20;76.40;;;;;;5025080;28;20034;-68
2021/05/15 01:11:57;;;;;;;6.32;4.78;;;16.10;76.50;;;;;;5024997;28;20135;-65
2021/05/15 01:14:23;;;;;;;7.72;4.93;;;16.10;76.50;;;;;;5025315;28;20133;-64
2021/05/15 01:16:49;;;;;;;6.13;4.30;;;16.10;76.70;;;;;;5026231;28;20025;-65
2021/05/15 01:19:16;;;;;;;6.10;4.20;;;16.10;76.70;;;;;;5026805;28;20056;-64
2021/05/15 01:21:41;;;;;;;5.40;4.28;;;16.10;76.90;;;;;;5026180;28;20108;-65
2021/05/15 01:24:08;;;;;;;6.18;4.82;;;16.10;77.00;;;;;;5025547;28;20438;-65
2021/05/15 01:26:34;;;;;;;7.97;4.22;;;16.10;77.00;;;;;;5025800;28;20030;-64
2021/05/15 01:29:05;;;;;;;6.80;4.10;;;16.20;77.00;;;;;;5024350;28;20524;-65
2021/05/15 01:31:32;;;;;;;5.70;4.47;;;16.10;77.10;;;;;;5026050;28;20157;-65
2021/05/15 01:33:59;;;;;;;6.30;4.57;;;16.10;77.00;;;;;;5022108;28;20022;-65
2021/05/15 01:36:26;;;;;;;6.97;4.60;;;16.00;77.10;;;;;;5025329;28;20159;-65
2021/05/15 01:38:52;;;;;;;5.38;4.72;;;16.00;77.40;;;;;;5025935;28;20109;-65
2021/05/15 01:41:19;;;;;;;6.72;4.18;;;15.90;77.30;;;;;;5026032;28;20029;-64
2021/05/15 01:43:45;;;;;;;6.03;4.40;;;15.90;77.40;;;;;;5024752;28;20513;-65
2021/05/15 01:46:11;;;;;;;6.15;4.30;;;15.90;77.50;;;;;;5023575;28;20103;-64
2021/05/15 01:48:38;;;;;;;6.05;4.80;;;15.90;77.70;;;;;;5025942;28;20022;-64
2021/05/15 01:51:08;;;;;;;6.10;4.88;;;15.80;78.00;;;;;;5024569;28;20025;-64
2021/05/15 01:53:36;;;;;;;5.75;4.55;;;15.80;77.80;;;;;;5023739;28;20021;-65
2021/05/15 01:56:04;;;;;;;6.45;4.68;;;15.70;78.00;;;;;;5024007;28;20045;-64
2021/05/15 01:58:31;;;;;;;6.68;5.30;;;15.70;78.30;;;;;;5024299;28;20025;-65
2021/05/15 02:00:56;;;;;;;6.13;4.68;;;15.70;78.40;;;;;;5025768;28;20030;-64
2021/05/15 02:03:22;;;;;;;5.88;4.65;;;15.70;78.40;;;;;;5025547;28;20033;-65
2021/05/15 02:05:53;;;;;;;5.40;4.20;;;15.70;78.50;;;;;;5025206;28;20373;-64
2021/05/15 02:08:19;;;;;;;6.25;4.85;;;15.60;78.50;;;;;;5023423;28;20030;-64
2021/05/15 02:10:45;;;;;;;6.93;5.00;;;15.60;78.50;;;;;;5024722;28;20033;-64
2021/05/15 02:13:11;;;;;;;9.40;5.05;;;15.60;78.70;;;;;;5023233;28;20076;-64
2021/05/15 02:15:38;;;;;;;7.70;5.20;;;15.50;78.90;;;;;;5023910;28;20030;-65
2021/05/15 02:18:05;;;;;;;10.45;5.00;;;15.50;79.10;;;;;;5026447;28;20445;-64
2021/05/15 02:20:31;;;;;;;6.38;5.32;;;15.50;79.20;;;;;;5024964;28;20057;-64
2021/05/15 02:22:57;;;;;;;6.90;5.00;;;15.50;79.30;;;;;;5024943;28;20374;-65
2021/05/15 02:25:24;;;;;;;8.73;6.15;;;15.40;79.50;;;;;;5023500;28;20029;-64
2021/05/15 02:27:50;;;;;;;7.45;5.72;;;15.40;79.60;;;;;;5024806;28;20024;-65
2021/05/15 02:30:17;;;;;;;8.88;6.53;;;15.40;79.60;;;;;;5023402;28;20112;-65
2021/05/15 02:32:43;;;;;;;8.00;6.70;;;15.40;79.80;;;;;;5023849;28;20029;-65
2021/05/15 02:35:09;;;;;;;8.77;6.18;;;15.40;79.90;;;;;;5024014;28;20357;-65
2021/05/15 02:37:35;;;;;;;9.23;6.95;;;15.40;80.00;;;;;;5025290;28;20474;-65
2021/05/15 02:40:00;;;;;;;8.25;6.38;;;15.40;80.00;;;;;;5023167;28;20033;-65
2021/05/15 02:42:26;;;;;;;11.65;7.88;;;15.40;80.10;;;;;;5023235;28;20454;-65
2021/05/15 02:44:52;;;;;;;8.98;6.65;;;15.40;80.30;;;;;;5024117;28;20100;-65
2021/05/15 02:47:22;;;;;;;8.98;7.03;;;15.40;80.40;;;;;;5022308;28;20029;-64
2021/05/15 02:49:48;;;;;;;12.32;7.05;;;15.40;80.20;;;;;;5023655;28;20072;-64
2021/05/15 02:52:14;;;;;;;8.52;6.75;;;15.50;80.30;;;;;;5025568;28;20021;-64
2021/05/15 02:54:40;;;;;;;9.23;6.20;;;15.40;80.30;;;;;;5022748;28;20022;-65
2021/05/15 02:57:07;;;;;;;10.20;6.38;;;15.50;80.60;;;;;;5023658;28;20108;-65
2021/05/15 02:59:33;;;;;;;7.82;6.35;;;15.40;80.60;;;;;;5025941;28;20079;-65
2021/05/15 03:01:59;;;;;;;7.05;5.82;;;15.50;80.80;;;;;;5024237;28;20362;-65
2021/05/15 03:04:25;;;;;;;7.70;6.38;;;15.50;80.80;;;;;;5023155;28;20072;-64
2021/05/15 03:06:51;;;;;;;10.98;6.90;;;15.60;80.90;;;;;;5023111;28;20022;-64
2021/05/15 03:09:16;;;;;;;10.02;6.43;;;15.60;80.90;;;;;;5023148;28;20028;-64
2021/05/15 03:11:42;;;;;;;8.85;6.03;;;15.70;80.90;;;;;;5022802;28;20041;-65
2021/05/15 03:14:07;;;;;;;9.02;6.20;;;15.80;80.90;;;;;;5023501;28;20044;-65
2021/05/15 03:16:33;;;;;;;9.52;5.93;;;16.00;81.00;;;;;;5023827;28;20022;-65
2021/05/15 03:18:59;;;;;;;8.40;6.20;;;16.10;80.80;;;;;;5023148;28;20023;-65
2021/05/15 03:21:25;;;;;;;9.32;6.45;;;16.20;80.70;;;;;;5023777;28;20377;-65
2021/05/15 03:23:51;;;;;;;8.27;6.10;;;16.40;80.50;;;;;;5023190;28;20446;-64
2021/05/15 03:26:17;;;;;;;9.98;7.15;;;16.50;81.20;;;;;;5022141;28;20032;-65
2021/05/15 03:28:42;;;;;;;10.38;6.50;;;16.70;80.80;;;;;;5022500;28;20108;-64
2021/05/15 03:31:08;;;;;;;8.20;6.18;;;16.90;80.80;;;;;;5023370;28;20029;-65
2021/05/15 03:33:34;;;;;;;6.53;5.50;;;17.10;81.10;;;;;;5023098;28;20533;-65
2021/05/15 03:35:59;;;;;;;10.07;5.80;;;17.40;81.20;;;;;;5022166;28;20028;-65
2021/05/15 03:38:25;;;;;;;8.70;5.97;;;17.70;81.20;;;;;;5023192;28;20013;-65
2021/05/15 03:40:51;;;;;;;6.07;5.45;;;18.00;80.50;;;;;;5023511;28;20029;-65
2021/05/15 03:43:17;;;;;;;7.57;6.00;;;18.40;80.00;;;;;;5023870;28;20354;-65
2021/05/15 03:45:42;;;;;;;6.45;5.32;;;18.90;79.10;;;;;;5023335;28;20069;-65
2021/05/15 03:48:08;;;;;;;8.63;6.03;;;19.40;77.90;;;;;;5024445;28;20025;-65
2021/05/15 03:50:33;;;;;;;5.95;5.03;;;20.00;76.60;;;;;;5022078;28;20029;-65
2021/05/15 03:52:59;;;;;;;5.38;4.43;;;20.80;74.80;;;;;;5023994;28;20044;-65
2021/05/15 03:55:25;;;;;;;6.63;4.68;;;21.60;72.00;;;;;;5022393;28;20445;-65
2021/05/15 03:57:50;;;;;;;7.50;4.47;;;22.50;68.90;;;;;;5022491;28;20017;-65
2021/05/15 04:00:17;;;;;;;5.78;4.28;;;23.50;66.10;;;;;;5024503;28;20381;-65
2021/05/15 04:02:43;;;;;;;5.28;3.72;;;24.50;63.20;;;;;;5023857;28;20493;-65
2021/05/15 04:05:09;;;;;;;5.85;4.25;;;25.50;60.60;;;;;;5022778;28;20152;-65
2021/05/15 04:07:34;;;;;;;5.15;3.75;;;26.30;58.40;;;;;;5023289;28;20105;-65
2021/05/15 04:10:00;;;;;;;5.13;3.67;;;27.20;56.50;;;;;;5021557;28;20105;-65
2021/05/15 04:12:33;;;;;;;4.03;3.63;;;27.90;54.50;;;;;;5023254;28;20139;-65
2021/05/15 04:17:29;;;;;;;5.07;3.70;;;29.10;52.30;;;;;;5018477;28;20029;-65
2021/05/15 04:19:58;;;;;;;5.43;3.40;;;29.70;51.00;;;;;;5023092;28;20570;-65
2021/05/15 04:22:24;;;;;;;5.22;3.58;;;30.40;49.80;;;;;;5020216;28;20022;-66
2021/05/15 04:24:50;;;;;;;5.05;3.72;;;30.90;48.50;;;;;;5022187;28;20029;-66
2021/05/15 04:27:16;;;;;;;6.45;3.90;;;31.50;47.50;;;;;;5021387;28;20040;-66
2021/05/15 04:29:45;;;;;;;4.57;3.60;;;31.90;46.90;;;;;;5022034;28;20098;-66
2021/05/15 04:32:11;;;;;;;7.00;3.58;;;32.40;45.90;;;;;;5020883;28;20026;-66
2021/05/15 04:34:37;;;;;;;4.82;3.60;;;32.70;45.00;;;;;;5021770;28;20033;-66
2021/05/15 04:37:03;;;;;;;4.82;3.80;;;33.00;44.20;;;;;;5024625;28;20022;-66
2021/05/15 04:39:32;;;;;;;4.78;3.53;;;33.10;43.60;;;;;;5024889;28;20076;-65
2021/05/15 04:41:58;;;;;;;4.05;3.60;;;33.40;43.10;;;;;;5025627;28;20025;-66
2021/05/15 04:44:23;;;;;;;5.25;3.50;;;33.60;43.00;;;;;;5025524;28;20351;-66
2021/05/15 04:46:50;;;;;;;4.97;3.22;;;33.90;42.40;;;;;;5025937;28;20374;-66
2021/05/15 04:49:17;;;;;;;4.57;3.22;;;34.30;42.10;;;;;;5027013;28;20057;-66
2021/05/15 04:51:43;;;;;;;5.65;3.53;;;34.50;41.40;;;;;;5024108;28;20072;-66
2021/05/15 04:54:09;;;;;;;5.85;3.28;;;34.70;41.30;;;;;;5024801;28;20041;-66
2021/05/15 04:56:35;;;;;;;5.25;3.70;;;34.80;40.90;;;;;;5025281;28;20128;-66
2021/05/15 04:59:01;;;;;;;4.75;3.67;;;35.10;40.80;;;;;;5025420;28;20353;-66
2021/05/15 05:01:27;;;;;;;4.15;3.17;;;35.30;40.40;;;;;;5025393;28;20109;-65
2021/05/15 05:03:52;;;;;;;4.65;3.20;;;35.50;40.30;;;;;;5025374;28;20030;-66
2021/05/15 05:06:19;;;;;;;6.45;4.10;;;35.70;40.00;;;;;;5026877;28;20029;-66
2021/05/15 05:08:44;;;;;;;7.97;4.05;;;35.70;39.50;;;;;;5024292;28;20026;-66
2021/05/15 05:11:10;;;;;;;8.07;4.30;;;35.80;40.10;;;;;;5025578;28;20087;-66
2021/05/15 05:13:36;;;;;;;5.32;4.40;;;35.80;39.10;;;;;;5026949;28;20029;-66
2021/05/15 05:16:02;;;;;;;5.85;5.00;;;36.00;39.00;;;;;;5024647;28;20024;-66
2021/05/15 05:18:27;;;;;;;7.22;4.65;;;36.10;39.00;;;;;;5025752;28;20047;-66
2021/05/15 05:20:56;;;;;;;5.85;5.20;;;36.10;38.40;;;;;;5026472;28;20033;-66
2021/05/15 05:23:21;;;;;;;7.90;6.65;;;35.80;38.10;;;;;;5026563;28;20357;-65
2021/05/15 05:25:47;;;;;;;10.38;8.73;;;35.30;38.30;;;;;;5025518;28;20018;-66
2021/05/15 05:28:15;;;;;;;12.75;10.05;;;34.40;38.80;;;;;;5024892;28;20029;-66
2021/05/15 05:30:42;;;;;;;14.88;9.73;;;33.40;39.50;;;;;;5023418;28;20036;-65
2021/05/15 05:33:08;;;;;;;10.60;7.15;;;32.40;40.50;;;;;;5023935;28;20477;-65
2021/05/15 05:35:35;;;;;;;9.40;6.50;;;31.40;41.40;;;;;;5025875;28;20089;-65
2021/05/15 05:38:01;;;;;;;9.10;5.03;;;30.40;42.20;;;;;;5024555;28;20057;-65
2021/05/15 05:40:27;;;;;;;6.25;4.38;;;29.60;43.30;;;;;;5025909;28;20523;-65
2021/05/15 05:42:53;;;;;;;6.45;4.28;;;28.70;44.30;;;;;;5024971;28;20021;-65
2021/05/15 05:45:18;;;;;;;4.63;3.33;;;28.10;45.50;;;;;;5025622;28;20576;-65
2021/05/15 05:47:44;;;;;;;5.00;3.67;;;27.50;46.20;;;;;;5023854;28;20036;-65
2021/05/15 05:50:11;;;;;;;4.88;3.65;;;27.00;46.90;;;;;;5024791;28;20112;-65
2021/05/15 05:52:38;;;;;;;5.10;3.47;;;26.60;47.70;;;;;;5026235;28;20021;-65
2021/05/15 05:55:05;;;;;;;6.88;3.63;;;26.30;48.20;;;;;;5023934;28;20038;-65
2021/05/15 05:57:30;;;;;;;7.15;3.58;;;26.00;48.60;;;;;;5024453;28;20021;-65
2021/05/15 05:59:56;;;;;;;4.80;3.25;;;25.80;48.80;;;;;;5024605;28;20025;-65
2021/05/15 06:02:22;;;;;;;2.80;2.35;;;25.50;49.50;;;;;;5025551;28;20025;-65
2021/05/15 06:04:47;;;;;;;2.80;2.45;;;25.30;49.60;;;;;;5023741;28;20109;-65
2021/05/15 06:07:13;;;;;;;3.35;2.83;;;25.10;49.90;;;;;;5023715;28;20032;-65
2021/05/15 06:09:40;;;;;;;3.08;2.40;;;24.90;50.30;;;;;;5024614;28;20678;-65
2021/05/15 06:12:07;;;;;;;3.45;2.58;;;24.70;50.70;;;;;;5024383;28;20040;-65
2021/05/15 06:14:34;;;;;;;4.13;2.40;;;24.60;51.10;;;;;;5023922;28;20029;-65
2021/05/15 06:17:00;;;;;;;2.63;2.42;;;24.50;51.30;;;;;;5022243;28;20033;-65
2021/05/15 06:19:25;;;;;;;3.28;2.30;;;24.40;51.60;;;;;;5023724;28;20021;-65
2021/05/15 06:21:51;;;;;;;4.70;2.20;;;24.30;51.90;;;;;;5006178;28;20348;-65
2021/05/15 06:24:17;;;;;;;2.67;2.30;;;24.20;52.00;;;;;;5025373;28;20037;-65
2021/05/15 06:26:42;;;;;;;3.58;2.20;;;24.10;52.20;;;;;;5022596;28;20026;-65
2021/05/15 06:29:08;;;;;;;3.03;2.22;;;24.10;52.90;;;;;;5023989;28;20014;-65
2021/05/15 06:31:34;;;;;;;2.10;1.90;;;24.00;52.90;;;;;;5024248;28;20060;-65
2021/05/15 06:33:59;;;;;;;2.33;2.13;;;24.00;52.90;;;;;;5022500;28;20022;-65
2021/05/15 06:36:25;;;;;;;2.50;2.30;;;24.00;53.20;;;;;;5024277;28;20021;-65
2021/05/15 06:38:51;;;;;;;4.25;1.90;;;24.00;53.20;;;;;;5023307;28;20366;-65
2021/05/15 06:41:17;;;;;;;2.42;1.88;;;23.90;53.20;;;;;;5022861;28;20029;-65
2021/05/15 06:43:42;;;;;;;3.17;2.17;;;23.90;53.20;;;;;;5024331;28;20036;-65
2021/05/15 06:46:08;;;;;;;3.08;1.90;;;23.90;53.20;;;;;;5024670;28;20032;-65
2021/05/15 06:48:34;;;;;;;2.90;1.80;;;23.80;53.40;;;;;;5023513;28;20064;-65
2021/05/15 06:50:59;;;;;;;2.28;2.08;;;23.80;53.50;;;;;;5024299;28;20528;-65
2021/05/15 06:53:25;;;;;;;3.22;1.88;;;23.80;53.50;;;;;;5023642;28;20018;-65
2021/05/15 06:55:51;;;;;;;4.00;2.22;;;23.70;53.20;;;;;;5021858;28;20048;-65
2021/05/15 06:58:16;;;;;;;1.90;1.75;;;23.70;53.30;;;;;;5025418;28;20025;-65
2021/05/15 07:00:42;;;;;;;2.22;2.03;;;23.60;53.60;;;;;;5021647;28;20025;-65
2021/05/15 07:03:08;;;;;;;1.75;1.65;;;23.60;53.50;;;;;;5022969;28;20032;-65
2021/05/15 07:05:34;;;;;;;2.28;2.08;;;23.60;53.50;;;;;;5024093;28;20082;-65
2021/05/15 07:08:00;;;;;;;2.83;1.98;;;23.60;54.30;;;;;;5021840;28;20025;-64
2021/05/15 07:10:26;;;;;;;2.63;2.13;;;23.60;53.50;;;;;;5019461;28;20397;-64
2021/05/15 07:12:52;;;;;;;3.45;1.98;;;23.60;53.50;;;;;;5022709;28;20079;-64
2021/05/15 07:15:19;;;;;;;3.08;1.60;;;23.50;53.50;;;;;;5017077;28;20026;-64
2021/05/15 07:17:45;;;;;;;4.00;1.60;;;23.50;53.60;;;;;;5023980;28;20022;-65
2021/05/15 07:20:12;;;;;;;1.80;1.70;;;23.50;54.10;;;;;;5019889;28;20446;-64
2021/05/15 07:22:39;;;;;;;4.28;2.20;;;23.50;54.20;;;;;;5017909;28;20079;-65
2021/05/15 07:25:05;;;;;;;2.38;1.90;;;23.50;53.60;;;;;;5020471;28;20359;-65
2021/05/15 07:27:31;;;;;;;1.85;1.70;;;23.50;54.00;;;;;;5017449;28;20026;-65
2021/05/15 07:29:56;;;;;;;2.65;2.00;;;23.50;54.10;;;;;;5016401;28;20033;-65
2021/05/15 07:32:24;;;;;;;3.10;1.67;;;23.50;54.00;;;;;;5017376;28;20061;-64
2021/05/15 07:34:50;;;;;;;2.42;1.88;;;23.50;54.30;;;;;;5017015;28;20041;-65
2021/05/15 07:37:16;;;;;;;2.05;1.80;;;23.40;54.30;;;;;;5019030;28;20026;-65
2021/05/15 07:39:43;;;;;;;1.80;1.70;;;23.40;54.20;;;;;;5016862;28;20377;-65
2021/05/15 07:42:09;;;;;;;2.25;1.77;;;23.40;54.50;;;;;;5015337;28;20053;-64
2021/05/15 07:44:35;;;;;;;2.53;1.67;;;23.40;54.70;;;;;;5014838;28;20029;-64
2021/05/15 07:47:02;;;;;;;1.60;1.50;;;23.30;54.80;;;;;;5015846;28;20022;-64
2021/05/15 07:49:28;;;;;;;2.67;1.58;;;23.40;54.80;;;;;;5015453;28;20030;-65
2021/05/15 07:51:53;;;;;;;3.30;1.90;;;23.30;54.50;;;;;;5017831;28;20104;-64
2021/05/15 07:54:21;;;;;;;1.88;1.73;;;23.40;54.50;;;;;;5013660;28;20029;-64
2021/05/15 07:56:47;;;;;;;2.63;1.90;;;23.40;54.60;;;;;;5020669;28;20120;-64
2021/05/15 07:59:13;;;;;;;2.13;1.92;;;23.40;54.50;;;;;;5020056;28;20061;-64
2021/05/15 08:01:39;;;;;;;1.60;1.50;;;23.40;54.10;;;;;;5017443;28;20141;-64
2021/05/15 08:04:05;;;;;;;1.85;1.75;;;23.40;54.30;;;;;;5016314;28;20032;-64
2021/05/15 08:06:31;;;;;;;1.65;1.55;;;23.30;54.50;;;;;;5018121;28;20033;-64
2021/05/15 08:08:57;;;;;;;1.40;1.33;;;23.30;54.60;;;;;;5016369;28;20040;-64
2021/05/15 08:11:22;;;;;;;1.95;1.77;;;23.30;54.50;;;;;;5018297;28;20158;-64
2021/05/15 08:13:48;;;;;;;1.50;1.40;;;23.30;54.40;;;;;;5018996;28;20025;-64
2021/05/15 08:16:14;;;;;;;1.98;1.60;;;23.30;54.40;;;;;;5015074;28;20025;-64
2021/05/15 08:18:41;;;;;;;1.60;1.50;;;23.30;54.60;;;;;;5019133;28;20030;-64
2021/05/15 08:21:07;;;;;;;4.90;1.60;;;23.30;54.00;;;;;;5019243;28;20065;-65
2021/05/15 08:23:35;;;;;;;1.50;1.40;;;23.40;53.70;;;;;;5023459;28;20025;-64
2021/05/15 08:26:10;;;;;;;1.40;1.30;;;23.30;53.60;;;;;;5020311;28;21552;-64
2021/05/15 08:28:39;;;;;;;1.70;1.17;;;23.30;53.70;;;;;;5022188;28;20071;-64
2021/05/15 08:31:07;;;;;;;1.40;1.17;;;23.40;53.30;;;;;;5021909;28;20061;-64
2021/05/15 08:33:32;;;;;;;1.55;1.45;;;23.30;52.80;;;;;;5021980;28;20381;-64
2021/05/15 08:35:58;;;;;;;2.55;1.85;;;23.30;52.70;;;;;;5020780;28;20136;-64
2021/05/15 08:38:23;;;;;;;1.48;1.38;;;23.30;52.70;;;;;;5017168;28;20029;-64
2021/05/15 08:40:49;;;;;;;1.50;1.48;;;23.30;52.60;;;;;;5017262;28;20393;-64
2021/05/15 08:43:15;;;;;;;1.50;1.40;;;23.30;52.50;;;;;;5017249;28;21843;-64
2021/05/15 08:45:42;;;;;;;1.15;1.10;;;23.20;52.40;;;;;;5022100;28;20076;-64
2021/05/15 08:48:11;;;;;;;2.83;1.58;;;23.20;52.20;;;;;;5020877;28;20068;-65
2021/05/15 08:50:38;;;;;;;1.88;1.55;;;23.20;52.10;;;;;;5023944;28;20049;-64
2021/05/15 08:53:04;;;;;;;1.55;1.45;;;23.20;52.40;;;;;;5026697;28;20021;-64
2021/05/15 08:55:32;;;;;;;1.27;1.17;;;23.20;52.20;;;;;;5023352;28;20053;-64
2021/05/15 08:58:00;;;;;;;0.93;0.93;;;23.20;52.00;;;;;;5020277;28;20022;-65
2021/05/15 09:00:38;;;;;;;2.05;1.33;;;23.20;52.30;;;;;;5014704;28;20061;-64
2021/05/15 09:03:09;;;;;;;1.83;1.65;;;23.20;52.40;;;;;;5025713;28;20022;-64
2021/05/15 09:05:38;;;;;;;1.52;1.42;;;23.20;52.50;;;;;;5021635;28;20080;-64
2021/05/15 09:08:09;;;;;;;2.70;1.40;;;23.30;52.10;;;;;;5005418;28;20041;-65
2021/05/15 09:10:39;;;;;;;1.50;1.40;;;23.30;51.70;;;;;;5023332;28;20112;-64
2021/05/15 09:13:18;;;;;;;1.58;1.00;;;23.30;51.80;;;;;;5020018;28;20034;-64
2021/05/15 09:15:50;;;;;;;1.85;1.15;;;23.30;52.00;;;;;;5015050;28;20156;-64
2021/05/15 09:18:18;;;;;;;1.13;1.05;;;23.30;51.90;;;;;;5020954;28;20022;-64
2021/05/15 09:20:45;;;;;;;1.08;0.98;;;23.30;51.70;;;;;;5018069;28;20040;-64
2021/05/15 09:23:22;;;;;;;3.97;1.27;;;23.30;51.50;;;;;;5012055;28;20037;-64
2021/05/15 09:26:10;;;;;;;3.53;1.48;;;23.30;51.30;;;;;;5019529;28;20037;-64
2021/05/15 09:28:50;;;;;;;1.88;1.20;;;23.30;51.40;;;;;;5015520;28;22008;-64
2021/05/15 09:31:18;;;;;;;1.63;1.15;;;23.30;51.60;;;;;;5016950;28;20041;-64
2021/05/15 09:33:49;;;;;;;2.50;1.45;;;23.30;51.60;;;;;;5022871;28;20030;-64
2021/05/15 09:36:19;;;;;;;8.02;1.67;;;23.30;51.60;;;;;;5018678;28;20053;-64
2021/05/15 09:38:45;;;;;;;1.85;1.50;;;23.30;51.30;;;;;;5021538;28;20117;-64
2021/05/15 09:41:11;;;;;;;3.42;1.35;;;23.20;51.10;;;;;;5019287;28;20485;-64
2021/05/15 09:43:37;;;;;;;1.38;1.27;;;23.20;51.20;;;;;;5021664;28;20034;-64
2021/05/15 09:46:03;;;;;;;3.17;1.13;;;23.20;51.20;;;;;;5022391;28;20043;-64
2021/05/15 09:48:35;;;;;;;1.30;1.00;;;23.20;51.10;;;;;;5020361;28;20050;-64
2021/05/15 09:51:28;;;;;;;1.98;1.30;;;23.10;50.80;;;;;;5021647;28;20026;-64
2021/05/15 09:53:53;;;;;;;1.90;1.40;;;23.10;50.80;;;;;;5013359;28;20413;-64
2021/05/15 09:56:30;;;;;;;1.42;1.20;;;23.10;51.20;;;;;;5021287;28;20053;-64
2021/05/15 09:58:56;;;;;;;2.22;1.35;;;23.10;51.20;;;;;;5020806;28;20048;-64
2021/05/15 10:01:25;;;;;;;7.95;1.80;;;23.10;51.40;;;;;;5018550;28;20046;-64
2021/05/15 10:04:02;;;;;;;1.17;1.02;;;23.10;51.40;;;;;;5019026;28;20104;-64
2021/05/15 10:06:28;;;;;;;1.55;0.98;;;23.10;51.30;;;;;;5023385;28;20493;-64
2021/05/15 10:08:54;;;;;;;1.13;1.10;;;23.20;51.40;;;;;;5023545;28;20026;-64
2021/05/15 10:11:21;;;;;;;1.13;1.00;;;23.20;51.00;;;;;;5019232;28;20370;-64
2021/05/15 10:13:47;;;;;;;0.88;0.88;;;23.20;50.50;;;;;;5017148;28;20358;-64
2021/05/15 10:16:13;;;;;;;1.40;1.02;;;23.20;50.50;;;;;;5015009;28;20037;-64
2021/05/15 10:18:39;;;;;;;2.65;1.20;;;23.20;50.30;;;;;;5021133;28;20048;-64
2021/05/15 10:21:05;;;;;;;1.15;1.08;;;23.20;50.50;;;;;;5018697;28;20037;-64
2021/05/15 10:23:42;;;;;;;1.75;1.40;;;23.20;50.40;;;;;;5015754;28;20026;-64
2021/05/15 10:26:21;;;;;;;1.50;1.40;;;23.20;50.40;;;;;;5018122;28;20018;-64
2021/05/15 10:29:04;;;;;;;3.22;1.10;;;23.10;50.60;;;;;;5018515;28;20465;-64
2021/05/15 10:31:44;;;;;;;3.03;1.25;;;23.10;50.80;;;;;;5017862;28;20057;-64
2021/05/15 10:34:11;;;;;;;2.83;1.20;;;23.00;50.70;;;;;;5020121;28;20044;-64
2021/05/15 10:36:48;;;;;;;1.48;1.38;;;23.00;50.60;;;;;;5019185;28;20183;-64
2021/05/15 10:39:28;;;;;;;1.73;1.55;;;23.10;51.50;;;;;;5017563;28;20024;-64
2021/05/15 10:41:55;;;;;;;1.20;1.10;;;23.10;50.90;;;;;;5020039;28;20091;-64
2021/05/15 10:44:21;;;;;;;1.58;0.90;;;23.10;50.70;;;;;;5026550;28;20030;-64
2021/05/15 10:46:49;;;;;;;1.60;1.10;;;23.10;50.70;;;;;;5021337;28;20515;-64
2021/05/15 10:49:18;;;;;;;0.95;0.95;;;23.20;50.50;;;;;;5020017;28;20091;-64
2021/05/15 10:51:45;;;;;;;2.35;1.00;;;23.30;50.40;;;;;;5020094;28;20527;-64
2021/05/15 10:54:14;;;;;;;1.10;1.00;;;23.30;50.30;;;;;;5016811;28;20472;-64
2021/05/15 10:56:40;;;;;;;0.98;0.98;;;23.40;49.90;;;;;;5017877;28;20037;-64
2021/05/15 10:59:11;;;;;;;1.65;1.40;;;23.40;49.50;;;;;;5013863;28;20028;-64
2021/05/15 11:01:57;;;;;;;0.77;0.77;;;23.50;49.60;;;;;;5011781;28;20047;-64
2021/05/15 11:04:26;;;;;;;1.10;1.10;;;23.50;49.90;;;;;;5018600;28;20536;-64
2021/05/15 11:07:05;;;;;;;1.63;1.23;;;23.60;49.80;;;;;;5018919;28;20040;-64
2021/05/15 11:09:33;;;;;;;1.48;1.30;;;23.70;49.60;;;;;;5014669;28;20457;-64
2021/05/15 11:12:13;;;;;;;9.45;1.45;;;23.70;49.20;;;;;;5017319;28;20528;-64
2021/05/15 11:14:42;;;;;;;1.02;0.80;;;23.70;49.00;;;;;;5017149;28;20017;-64
2021/05/15 11:17:21;;;;;;;0.70;0.70;;;23.70;48.70;;;;;;5015962;28;20366;-64
2021/05/15 11:19:53;;;;;;;1.20;1.10;;;23.70;48.50;;;;;;5016121;28;20540;-64
2021/05/15 11:22:20;;;;;;;1.50;0.90;;;23.70;48.30;;;;;;5018870;28;20081;-64
2021/05/15 11:24:56;;;;;;;3.40;0.95;;;23.70;48.70;;;;;;5018954;28;20069;-64
2021/05/15 11:27:23;;;;;;;1.10;1.00;;;23.70;48.60;;;;;;5016493;28;20036;-64
2021/05/15 11:30:06;;;;;;;1.10;1.00;;;23.60;48.40;;;;;;5014930;28;20407;-64
2021/05/15 11:32:32;;;;;;;1.45;0.90;;;23.70;48.70;;;;;;5019807;28;20473;-63
2021/05/15 11:35:01;;;;;;;1.50;1.00;;;23.60;48.50;;;;;;5020009;28;20046;-64
2021/05/15 11:37:26;;;;;;;1.52;0.90;;;23.60;48.60;;;;;;5021039;28;20040;-64
2021/05/15 11:39:53;;;;;;;1.05;1.05;;;23.60;48.60;;;;;;5014827;28;20409;-64
2021/05/15 11:42:19;;;;;;;1.13;1.02;;;23.60;48.10;;;;;;5014227;28;20022;-63
2021/05/15 11:44:51;;;;;;;0.68;0.68;;;23.60;48.00;;;;;;5013957;28;20424;-63
2021/05/15 11:47:17;;;;;;;0.85;0.73;;;23.60;47.80;;;;;;5014231;28;20026;-63
2021/05/15 11:49:42;;;;;;;2.42;1.20;;;23.60;47.80;;;;;;5019675;28;20026;-64
2021/05/15 11:52:09;;;;;;;1.33;0.82;;;23.60;47.90;;;;;;5014762;28;20029;-63
2021/05/15 11:54:37;;;;;;;1.10;0.80;;;23.60;48.00;;;;;;5002233;28;20029;-63
2021/05/15 11:57:03;;;;;;;0.60;0.60;;;23.50;48.00;;;;;;5018659;28;20111;-63
2021/05/15 11:59:29;;;;;;;0.85;0.85;;;23.50;47.80;;;;;;5014627;28;20413;-64
2021/05/15 12:01:57;;;;;;;1.08;0.98;;;23.50;47.70;;;;;;5014639;28;20081;-64
2021/05/15 12:04:28;;;;;;;1.50;1.10;;;23.50;47.80;;;;;;5013944;28;20040;-63
2021/05/15 12:06:56;;;;;;;3.80;1.30;;;23.50;48.10;;;;;;5015208;28;20030;-64
2021/05/15 12:09:22;;;;;;;1.40;1.30;;;23.50;48.30;;;;;;5017489;28;20038;-64
2021/05/15 12:12:00;;;;;;;1.45;1.00;;;23.50;48.30;;;;;;5021325;28;20431;-63
2021/05/15 12:14:26;;;;;;;0.88;0.80;;;23.50;47.90;;;;;;5022669;28;20033;-63
2021/05/15 12:16:52;;;;;;;2.83;1.10;;;23.50;48.60;;;;;;5021403;28;20026;-64
2021/05/15 12:19:27;;;;;;;0.90;0.90;;;23.60;48.00;;;;;;5024689;28;20025;-64
2021/05/15 12:22:09;;;;;;;1.10;0.73;;;23.60;47.90;;;;;;5020081;28;20103;-63
2021/05/15 12:24:44;;;;;;;0.95;0.95;;;23.50;47.60;;;;;;5020956;28;20034;-63
2021/05/15 12:27:23;;;;;;;1.95;1.02;;;23.50;47.80;;;;;;5018089;28;20025;-64
2021/05/15 12:30:06;;;;;;;1.75;1.15;;;23.50;47.70;;;;;;5013603;28;20079;-64
2021/05/15 12:32:34;;;;;;;1.50;0.80;;;23.50;47.80;;;;;;5015295;28;20022;-64
2021/05/15 12:35:09;;;;;;;1.02;0.90;;;23.50;47.60;;;;;;5018184;28;20113;-64
2021/05/15 12:37:39;;;;;;;1.30;1.20;;;23.50;47.60;;;;;;5020171;28;20053;-64
2021/05/15 12:40:12;;;;;;;1.20;1.20;;;23.50;48.20;;;;;;5019526;28;20480;-65
2021/05/15 12:42:38;;;;;;;1.08;0.98;;;23.50;48.10;;;;;;5014765;28;20065;-64
2021/05/15 12:45:09;;;;;;;1.83;1.30;;;23.50;48.00;;;;;;5018229;28;20022;-64
2021/05/15 12:47:36;;;;;;;2.55;1.08;;;23.50;48.00;;;;;;5018111;28;20436;-63
2021/05/15 12:50:30;;;;;;;1.48;1.35;;;23.50;48.10;;;;;;5030463;28;20029;-63